• Join FlightAware (Why Join?)
  • Login
  • US Flag 
12:12AM EST


 

Airport Tracker/Info


-or-


 

Live Flight TrackerFlight Track Log ✈ SWA378 ✈ 04-Jun-2013 ✈ KSJC - KONT

Flight Track Log - Related Links

Times and Time Zones

All times are in EDT time to prevent confusion due to time zone crossing. See the SWA378 flight status page for this flight to view local times or setup timezone preferences in your user account.

Time Position Orientation Groundspeed Altitude Reporting Facility
EDT Latitude Longitude Course Direction KTS MPH feet Rate Location/Type
11:14AM 37.3833 -121.9500 345° North 183 211 1,600  Level Northern Cal TRACON
11:15AM 37.4333 -121.9667 345° North 244 281 4,000 1,680 Climbing Northern Cal TRACON
11:16AM 37.4333 -121.9000 90° East 255 293 4,900 1,620 Climbing Northern Cal TRACON
11:17AM 37.3833 -121.8500 142° Southeast 235 270 7,300 1,800 Climbing Northern Cal TRACON
11:18AM 37.3381 -121.8061 142° Southeast 237 273 8,400 1,920 Climbing Oakland Center
11:19AM 37.2667 -121.7233 137° Southeast 286 329 11,100 2,700 Climbing Oakland Center
11:20AM 37.1983 -121.6481 139° Southeast 324 373 14,000 2,700 Climbing Oakland Center
11:21AM 37.1297 -121.5708 138° Southeast 332 382 16,700 2,520 Climbing Oakland Center
11:22AM 37.0611 -121.4975 140° Southeast 360 414 19,200 2,760 Climbing Oakland Center
11:23AM 36.9697 -121.3944 138° Southeast 371 427 22,400 2,700 Climbing Oakland Center
11:24AM 36.8889 -121.3053 139° Southeast 385 443 24,700 2,040 Climbing Oakland Center
11:25AM 36.7997 -121.2103 140° Southeast 405 466 26,600 2,040 Climbing Oakland Center
11:26AM 36.7119 -121.1169 140° Southeast 414 476 28,900 1,800 Climbing Oakland Center
11:27AM 36.6236 -121.0178 138° Southeast 425 489 30,300 1,620 Climbing Oakland Center
11:28AM 36.5408 -120.9053 132° Southeast 437 503 32,300 2,100 Climbing Oakland Center
11:29AM 36.4681 -120.7892 128° Southeast 428 493 34,600 1,800 Climbing Oakland Center
11:30AM 36.3947 -120.6756 129° Southeast 423 487 36,000 1,140 Climbing Oakland Center
11:31AM 36.3211 -120.5625 129° Southeast 422 486 37,000 480 Climbing Oakland Center
11:32AM 36.2461 -120.4486 129° Southeast 426 490 37,000  Level Oakland Center
11:33AM 36.1719 -120.3353 129° Southeast 423 487 37,000  Level Oakland Center
11:34AM 36.0972 -120.2225 129° Southeast 422 486 37,000  Level Oakland Center
11:35AM 36.0247 -120.1119 129° Southeast 416 479 37,000  Level Oakland Center
11:36AM 35.9494 -119.9978 129° Southeast 422 486 37,000  Level Oakland Center
11:37AM 35.8592 -119.8619 129° Southeast 426 490 37,000  Level Oakland Center
11:38AM 35.7833 -119.7486 129° Southeast 426 490 37,000  Level Oakland Center
11:38AM 35.7672 -119.7236 128° Southeast 434 499 37,000  Level Los Angeles Center
11:39AM 35.6914 -119.6092 129° Southeast 431 496 37,000  Level Los Angeles Center
11:40AM 35.6125 -119.4933 130° Southeast 438 504 37,000  Level Los Angeles Center
11:41AM 35.5350 -119.3769 129° Southeast 439 505 37,000  Level Los Angeles Center
11:42AM 35.4564 -119.2614 130° Southeast 440 506 37,000  Level Los Angeles Center
11:44AM 35.3625 -119.1211 129° Southeast 442 509 37,000 -240 Level Los Angeles Center
11:45AM 35.2836 -119.0044 130° Southeast 444 511 36,600 -780 Descending Los Angeles Center
11:46AM 35.2044 -118.8906 130° Southeast 441 507 35,500 -1,020 Descending Los Angeles Center
11:47AM 35.1278 -118.7789 130° Southeast 434 499 34,600 -960 Descending Los Angeles Center
11:48AM 35.0511 -118.6681 130° Southeast 429 494 33,600 -1,620 Descending Los Angeles Center
11:49AM 34.9736 -118.5550 130° Southeast 432 497 31,300 -2,520 Descending Los Angeles Center
11:50AM 34.8831 -118.4250 130° Southeast 445 512 28,400 -2,460 Descending Los Angeles Center
11:51AM 34.8075 -118.3167 130° Southeast 431 496 26,300 -1,500 Descending Los Angeles Center
11:52AM 34.7375 -118.2169 130° Southeast 404 465 25,300 -1,080 Descending Los Angeles Center
11:53AM 34.6703 -118.1206 130° Southeast 385 443 24,100 -1,500 Descending Los Angeles Center
11:54AM 34.5994 -117.9969 125° Southeast 370 426 22,200 -1,620 Descending Los Angeles Center
11:55AM 34.5531 -117.8931 118° Southeast 354 407 20,800 -1,680 Descending Los Angeles Center
11:56AM 34.5061 -117.7925 120° Southeast 349 402 18,800 -1,980 Descending Los Angeles Center
11:57AM 34.4614 -117.6933 119° Southeast 338 389 16,800 -1,920 Descending Los Angeles Center
11:58AM 34.4161 -117.5983 120° Southeast 330 380 14,900 -1,500 Descending Los Angeles Center
11:59AM 34.3719 -117.4972 118° Southeast 301 346 13,800 -840 Descending Los Angeles Center
12:00PM 34.3325 -117.4142 120° Southeast 288 331 13,200 -840 Descending Los Angeles Center
12:01PM 34.2733 -117.3744 151° Southeast 240 276 12,100 -1,500 Descending Los Angeles Center
12:02PM 34.2056 -117.3319 153° Southeast 228 262 9,900 -1,980 Descending Los Angeles Center
12:03PM 34.1358 -117.3031 161° South 219 252 7,600 -2,220 Descending Los Angeles Center
12:04PM 34.1167 -117.3000 172° South 218 251 6,800 -1,860 Descending Southern California TRACON
12:05PM 34.0667 -117.3167 195° South 224 258 5,100 -1,560 Descending Southern California TRACON
12:06PM 34.0500 -117.3833 253° West 195 224 3,700 -900 Descending Southern California TRACON
12:07PM 34.0500 -117.4333 270° West 160 184 3,300 -600 Descending Southern California TRACON
12:08PM 34.0500 -117.4833 270° West 131 151 2,600 -780 Descending Southern California TRACON
12:09PM 34.0500 -117.5333 270° West 133 153 1,800 -780 Descending Southern California TRACON
12:10PM 34.0500 -117.5667 270° West 128 147 1,100 -720 Descending Southern California TRACON
12:13PM 34.0500 -117.6000 North  Level FlightAware Approximate